Quantum Of The Seas — C6BH8 — position and weather

sailwx.info

Track history (hours):
 
Tides and Currents Weather Stations Pressure Air Temp Water Temp Dewpoint Dewpoint Depression Visibility Wind Speed Wind Dir Waves Ship Positions

Quantum Of The Seas

Last reported at 2019-May-20 11:53 UTC. Time now 2019-May-20 17:33 UTC.
Position N 31°07' E 122°17'.

Length 348 m; draft 8.9 m.

Type: Passenger vessel. MMSI: 311000267.

Date/timePositionNaut miles runAvg speedWind from/ knotsBaromVisibWave heightAir tempDewpointWater temp
2019-May-20 11:53N 31°07' E 122°17'614.9
2019-May-20 11:30N 31°10' E 122°11'714.7
2019-May-20 11:00N 31°14' E 122°04'714.8
2019-May-20 10:31N 31°16' E 121°55'814.7
2019-May-20 09:59N 31°18' E 121°47'1 0.1
2019-May-19 20:46N 31°18' E 121°46'311.9
2019-May-19 20:30N 31°17' E 121°49'611.9
2019-May-19 20:00N 31°15' E 121°56'712.2
2019-May-19 19:26N 31°14' E 122°04'713.3
2019-May-19 18:54N 31°10' E 122°11'410.6
2019-May-19 18:30N 31°08' E 122°15'510.8
2019-May-19 18:00N 31°06' E 122°21'1210.3
2019-May-19 16:48N 31°07' E 122°36'  
2019-May-16 12:22N 31°08' E 122°15'3 8.1
2019-May-16 11:58N 31°10' E 122°12'5 6.9
2019-May-16 11:13N 31°13' E 122°07'2 9.2
2019-May-16 10:59N 31°14' E 122°05'711.6
2019-May-16 10:25N 31°15' E 121°58'23920.9
2019-May-15 23:00N 31°00' E 126°36'24379.3 090 / 101014.9 27.024.1
2019-May-15 19:56N 31°16' E 121°53'613.2
2019-May-15 19:27N 31°15' E 122°00'612.7
2019-May-15 18:56N 31°13' E 122°07'812.9
2019-May-15 18:18N 31°08' E 122°15'  
2019-May-13 05:11N 32°30' E 126°30'7914.0
2019-May-12 23:35N 31°53' E 125°08'415.0
2019-May-12 23:20N 31°52' E 125°04'5613.8
2019-May-12 19:19N 31°31' E 124°03'712.4
2019-May-12 18:46N 31°28' E 123°56'712.3
2019-May-12 18:12N 31°26' E 123°48'312.3
2019-May-12 17:56N 31°24' E 123°45'512.4
2019-May-12 17:30N 31°22' E 123°39'1012.8
2019-May-12 16:45N 31°18' E 123°29'412.9
2019-May-12 16:29N 31°16' E 123°25'1512.8
2019-May-12 15:17N 31°11' E 123°09'813.8
2019-May-12 14:43N 31°08' E 122°60'313.8
2019-May-12 14:30N 31°07' E 122°57'813.8
2019-May-12 13:57N 31°05' E 122°48'614.2
2019-May-12 13:30N 31°05' E 122°40'1313.9
2019-May-12 12:35N 31°06' E 122°26'413.4
2019-May-12 12:18N 31°06' E 122°21'514.2
2019-May-12 11:58N 31°07' E 122°16'914.8
2019-May-12 11:23N 31°13' E 122°08'914.3
2019-May-12 10:46N 31°15' E 121°58'413.9
2019-May-12 10:30N 31°16' E 121°54'713.5
2019-May-12 09:59N 31°18' E 121°46'6 0.5
2019-May-11 21:30N 31°21' E 121°40'510.6
2019-May-11 21:00N 31°18' E 121°46'611.0
2019-May-11 20:27N 31°16' E 121°52'511.1
2019-May-11 19:59N 31°15' E 121°58'510.6
2019-May-11 19:30N 31°14' E 122°04'710.6
2019-May-11 18:50N 31°11' E 122°11'610.9
2019-May-11 18:19N 31°07' E 122°16'310.1
2019-May-11 18:00N 31°06' E 122°20'6 9.8
2019-May-11 17:23N 31°07' E 122°27'610.7
2019-May-11 16:51N 31°07' E 122°34'715.2
2019-May-11 16:22N 31°07' E 122°42'615.4
2019-May-11 16:00N 31°07' E 122°49'814.6
2019-May-11 15:27N 31°07' E 122°58'714.4
2019-May-11 14:59N 31°07' E 123°06'714.7
2019-May-11 14:30N 31°07' E 123°14'714.1
2019-May-11 14:00N 31°07' E 123°22'612.8
2019-May-11 13:30N 31°07' E 123°30'611.5
2019-May-11 12:57N 31°08' E 123°37'1911.1
2019-May-11 11:16N 31°12' E 123°59'411.4
2019-May-11 10:58N 31°13' E 124°02'711.2
2019-May-11 10:21N 31°16' E 124°10'411.2
2019-May-11 10:00N 31°17' E 124°14'611.2
2019-May-11 09:29N 31°19' E 124°20'611.5
2019-May-11 09:00N 31°21' E 124°26'611.5
2019-May-11 08:30N 31°23' E 124°33'8611.7
2019-May-11 01:09N 31°55' E 126°07'311.1
2019-May-11 00:55N 31°55' E 126°10'5611.0
2019-May-10 19:52N 32°16' E 127°11'  
Track history (hours):
 
Tides and Currents Weather Stations Pressure Air Temp Water Temp Dewpoint Dewpoint Depression Visibility Wind Speed Wind Dir Waves Ship Positions

Quantum Of The Seas

Last reported at 2019-May-20 11:53 UTC. Time now 2019-May-20 17:33 UTC.
Position N 31°07' E 122°17'.

Length 348 m; draft 8.9 m.

Type: Passenger vessel. MMSI: 311000267.

Date/timePositionNaut miles runAvg speedWind from/ knotsBaromVisibWave heightAir tempDewpointWater temp
2019-May-20 11:53N 31°07' E 122°17'614.9
2019-May-20 11:30N 31°10' E 122°11'714.7
2019-May-20 11:00N 31°14' E 122°04'714.8
2019-May-20 10:31N 31°16' E 121°55'814.7
2019-May-20 09:59N 31°18' E 121°47'1 0.1
2019-May-19 20:46N 31°18' E 121°46'311.9
2019-May-19 20:30N 31°17' E 121°49'611.9
2019-May-19 20:00N 31°15' E 121°56'712.2
2019-May-19 19:26N 31°14' E 122°04'713.3
2019-May-19 18:54N 31°10' E 122°11'410.6
2019-May-19 18:30N 31°08' E 122°15'510.8
2019-May-19 18:00N 31°06' E 122°21'1210.3
2019-May-19 16:48N 31°07' E 122°36'  
2019-May-16 12:22N 31°08' E 122°15'3 8.1
2019-May-16 11:58N 31°10' E 122°12'5 6.9
2019-May-16 11:13N 31°13' E 122°07'2 9.2
2019-May-16 10:59N 31°14' E 122°05'711.6
2019-May-16 10:25N 31°15' E 121°58'23920.9
2019-May-15 23:00N 31°00' E 126°36'24379.3 090 / 101014.9 27.024.1
2019-May-15 19:56N 31°16' E 121°53'613.2
2019-May-15 19:27N 31°15' E 122°00'612.7
2019-May-15 18:56N 31°13' E 122°07'812.9
2019-May-15 18:18N 31°08' E 122°15'  
2019-May-13 05:11N 32°30' E 126°30'7914.0
2019-May-12 23:35N 31°53' E 125°08'415.0
2019-May-12 23:20N 31°52' E 125°04'5613.8
2019-May-12 19:19N 31°31' E 124°03'712.4
2019-May-12 18:46N 31°28' E 123°56'712.3
2019-May-12 18:12N 31°26' E 123°48'312.3
2019-May-12 17:56N 31°24' E 123°45'512.4
2019-May-12 17:30N 31°22' E 123°39'1012.8
2019-May-12 16:45N 31°18' E 123°29'412.9
2019-May-12 16:29N 31°16' E 123°25'1512.8
2019-May-12 15:17N 31°11' E 123°09'813.8
2019-May-12 14:43N 31°08' E 122°60'313.8
2019-May-12 14:30N 31°07' E 122°57'813.8
2019-May-12 13:57N 31°05' E 122°48'614.2
2019-May-12 13:30N 31°05' E 122°40'1313.9
2019-May-12 12:35N 31°06' E 122°26'413.4
2019-May-12 12:18N 31°06' E 122°21'514.2
2019-May-12 11:58N 31°07' E 122°16'914.8
2019-May-12 11:23N 31°13' E 122°08'914.3
2019-May-12 10:46N 31°15' E 121°58'413.9
2019-May-12 10:30N 31°16' E 121°54'713.5
2019-May-12 09:59N 31°18' E 121°46'6 0.5
2019-May-11 21:30N 31°21' E 121°40'510.6
2019-May-11 21:00N 31°18' E 121°46'611.0
2019-May-11 20:27N 31°16' E 121°52'511.1
2019-May-11 19:59N 31°15' E 121°58'510.6
2019-May-11 19:30N 31°14' E 122°04'710.6
2019-May-11 18:50N 31°11' E 122°11'610.9
2019-May-11 18:19N 31°07' E 122°16'310.1
2019-May-11 18:00N 31°06' E 122°20'6 9.8
2019-May-11 17:23N 31°07' E 122°27'610.7
2019-May-11 16:51N 31°07' E 122°34'715.2
2019-May-11 16:22N 31°07' E 122°42'615.4
2019-May-11 16:00N 31°07' E 122°49'814.6
2019-May-11 15:27N 31°07' E 122°58'714.4
2019-May-11 14:59N 31°07' E 123°06'714.7
2019-May-11 14:30N 31°07' E 123°14'714.1
2019-May-11 14:00N 31°07' E 123°22'612.8
2019-May-11 13:30N 31°07' E 123°30'611.5
2019-May-11 12:57N 31°08' E 123°37'1911.1
2019-May-11 11:16N 31°12' E 123°59'411.4
2019-May-11 10:58N 31°13' E 124°02'711.2
2019-May-11 10:21N 31°16' E 124°10'411.2
2019-May-11 10:00N 31°17' E 124°14'611.2
2019-May-11 09:29N 31°19' E 124°20'611.5
2019-May-11 09:00N 31°21' E 124°26'611.5
2019-May-11 08:30N 31°23' E 124°33'8611.7
2019-May-11 01:09N 31°55' E 126°07'311.1
2019-May-11 00:55N 31°55' E 126°10'5611.0
2019-May-10 19:52N 32°16' E 127°11'  

Dump ship's entire track history